Time;durP1;ratioP1;P1;durP2;ratioP2;P2;SDS_P1;SDS_P2;PMS_P1;PMS_P2;Temp;Humidity;BMP_temperature;BMP_pressure;BME280_temperature;BME280_humidity;BME280_pressure;Samples;Min_cycle;Max_cycle;Signal;HPM_P1;HPM_P2
2021/12/28 00:00:14;;;;;;;76.10;40.38;;;4.70;86.00;;;2.70;100.00;94831.63;4937632;28;20058;-65
2021/12/28 00:02:42;;;;;;;80.20;41.03;;;4.70;86.30;;;2.73;100.00;94827.91;4948230;28;20207;-66
2021/12/28 00:05:09;;;;;;;72.57;39.58;;;4.80;86.40;;;2.76;100.00;94833.56;4965778;28;20212;-65
2021/12/28 00:07:36;;;;;;;68.68;38.78;;;4.90;86.10;;;2.81;100.00;94833.03;4982386;28;20105;-66
2021/12/28 00:10:03;;;;;;;76.65;38.88;;;4.90;86.10;;;2.82;100.00;94824.28;4967211;28;20047;-65
2021/12/28 00:12:32;;;;;;;73.53;38.92;;;4.90;86.00;;;2.82;100.00;94824.28;4951385;28;20050;-67
2021/12/28 00:15:05;;;;;;;71.80;38.05;;;4.80;86.20;;;2.83;100.00;94818.09;4953581;28;20035;-66
2021/12/28 00:20:15;;;;;;;68.82;36.58;;;4.90;86.30;;;2.85;100.00;94820.53;4935526;28;20046;-66
2021/12/28 00:22:41;;;;;;;66.32;37.38;;;4.90;86.30;;;2.87;100.00;94815.94;4969882;28;20039;-66
2021/12/28 00:25:07;;;;;;;71.57;38.75;;;4.90;86.50;;;2.87;100.00;94816.75;4958686;28;20079;-66
2021/12/28 00:27:33;;;;;;;73.63;38.00;;;4.90;86.20;;;2.89;100.00;94820.00;4934678;28;20058;-65
2021/12/28 00:30:01;;;;;;;70.78;37.67;;;4.90;86.30;;;2.90;100.00;94816.41;4947164;28;20063;-65
2021/12/28 00:32:26;;;;;;;69.82;37.47;;;4.90;86.10;;;2.90;100.00;94811.22;4924925;29;20518;-66
2021/12/28 00:34:52;;;;;;;76.75;38.92;;;4.90;86.20;;;2.91;100.00;94812.03;4939554;29;20043;-66
2021/12/28 00:37:18;;;;;;;65.53;37.03;;;5.00;86.10;;;2.90;100.00;94810.41;4963147;28;20035;-66
2021/12/28 00:39:44;;;;;;;71.55;36.80;;;4.90;86.20;;;2.88;100.00;94813.19;4962494;28;20127;-67
2021/12/28 00:42:10;;;;;;;69.18;36.63;;;4.90;86.10;;;2.86;100.00;94806.56;4968501;28;20054;-66
2021/12/28 00:44:35;;;;;;;69.93;37.55;;;4.90;86.20;;;2.85;100.00;94812.72;4941386;28;20034;-66
2021/12/28 00:47:01;;;;;;;69.40;36.67;;;4.90;86.10;;;2.83;100.00;94814.69;4988764;28;20039;-67
2021/12/28 00:49:27;;;;;;;70.55;35.92;;;4.80;86.20;;;2.81;100.00;94816.66;4986641;28;20359;-67
2021/12/28 00:51:55;;;;;;;67.55;36.60;;;4.80;86.10;;;2.79;100.00;94819.44;4988193;28;20043;-66
2021/12/28 00:54:21;;;;;;;69.43;35.83;;;4.80;85.90;;;2.77;100.00;94821.38;4989202;28;20106;-67
2021/12/28 00:56:47;;;;;;;66.70;36.22;;;4.80;86.00;;;2.76;100.00;94819.78;4965991;28;20038;-66
2021/12/28 00:59:12;;;;;;;69.50;35.85;;;4.70;85.80;;;2.75;100.00;94818.97;4937808;28;20069;-66
2021/12/28 01:01:38;;;;;;;67.40;36.10;;;4.80;85.80;;;2.74;100.00;94826.94;4938259;29;20035;-66
2021/12/28 01:04:04;;;;;;;68.38;35.45;;;4.70;85.70;;;2.73;100.00;94820.94;4953042;28;20031;-67
2021/12/28 01:06:30;;;;;;;62.15;34.17;;;4.70;85.70;;;2.74;100.00;94816.53;4937365;28;20487;-66
2021/12/28 01:08:56;;;;;;;59.40;31.95;;;4.70;85.60;;;2.73;100.00;94815.75;4970783;28;20046;-67
2021/12/28 01:11:22;;;;;;;60.65;32.13;;;4.70;85.90;;;2.72;100.00;94819.31;4971461;28;20050;-68
2021/12/28 01:13:48;;;;;;;58.70;33.47;;;4.80;86.00;;;2.72;100.00;94814.13;4952909;28;20039;-66
2021/12/28 01:16:14;;;;;;;67.30;35.28;;;4.70;85.80;;;2.72;100.00;94823.69;4951839;28;20035;-66
2021/12/28 01:18:41;;;;;;;63.85;35.05;;;4.70;85.60;;;2.71;100.00;94828.06;4937083;28;20455;-67
2021/12/28 01:21:07;;;;;;;63.17;34.13;;;4.70;85.60;;;2.68;100.00;94822.41;4986047;28;20069;-67
2021/12/28 01:23:33;;;;;;;63.05;34.20;;;4.60;85.70;;;2.67;100.00;94821.59;4971147;28;20030;-67
2021/12/28 01:25:59;;;;;;;58.95;32.67;;;4.60;86.10;;;2.63;100.00;94807.34;4978861;28;20113;-67
2021/12/28 01:28:25;;;;;;;62.25;34.13;;;4.60;86.10;;;2.62;100.00;94812.72;4955570;28;20035;-67
2021/12/28 01:30:50;;;;;;;60.97;32.97;;;4.40;86.20;;;2.56;100.00;94816.00;4991369;28;20162;-68
2021/12/28 01:33:16;;;;;;;62.25;33.03;;;4.40;86.60;;;2.52;100.00;94818.13;4955101;28;20027;-66
2021/12/28 01:35:50;;;;;;;60.47;33.13;;;4.40;87.00;;;2.49;100.00;94817.63;4942445;28;20110;-66
2021/12/28 01:38:17;;;;;;;66.20;33.42;;;4.40;87.10;;;2.47;100.00;94816.03;4944428;28;20572;-66
2021/12/28 01:40:43;;;;;;;62.17;33.53;;;4.30;87.10;;;2.44;100.00;94810.38;4994320;28;20046;-66
2021/12/28 01:43:13;;;;;;;66.65;35.47;;;4.30;86.90;;;2.40;100.00;94804.72;4953679;28;20053;-65
2021/12/28 01:45:46;;;;;;;64.80;33.45;;;4.20;86.60;;;2.36;100.00;94802.63;4954873;28;20054;-65
2021/12/28 01:48:19;;;;;;;67.50;36.22;;;4.20;86.70;;;2.30;100.00;94801.53;5000651;28;20122;-66
2021/12/28 01:50:46;;;;;;;61.50;33.40;;;4.10;86.60;;;2.23;100.00;94802.38;4938358;29;20078;-66
2021/12/28 01:53:12;;;;;;;68.43;34.67;;;4.10;86.40;;;2.19;100.00;94801.91;4937389;28;20062;-67
2021/12/28 01:55:40;;;;;;;72.40;33.80;;;4.00;86.40;;;2.11;100.00;94794.16;4966448;28;20043;-67
2021/12/28 01:58:06;;;;;;;85.65;35.40;;;4.00;86.70;;;2.07;100.00;94792.91;4935237;28;20154;-67
2021/12/28 02:00:32;;;;;;;64.18;33.53;;;3.90;86.80;;;2.03;100.00;94786.41;4961952;28;20126;-67
2021/12/28 02:02:59;;;;;;;64.53;33.33;;;4.00;86.70;;;1.99;100.00;94780.75;4962410;28;20062;-66
2021/12/28 02:05:25;;;;;;;62.35;31.67;;;4.00;86.70;;;1.98;100.00;94783.50;4935014;29;20121;-67
2021/12/28 02:07:51;;;;;;;51.75;28.70;;;4.00;86.70;;;1.98;100.00;94786.09;4940826;28;20035;-66
2021/12/28 02:10:17;;;;;;;52.95;29.17;;;3.90;86.80;;;1.96;100.00;94780.28;4965020;28;20090;-66
2021/12/28 02:12:43;;;;;;;50.50;27.92;;;4.00;86.80;;;1.96;100.00;94786.28;4935217;29;20392;-66
2021/12/28 02:15:13;;;;;;;48.20;27.85;;;4.00;86.80;;;1.95;100.00;94778.66;4936410;28;20047;-66
2021/12/28 02:17:39;;;;;;;44.53;26.63;;;4.00;86.70;;;1.95;100.00;94770.88;4936258;29;20122;-66
2021/12/28 02:20:11;;;;;;;41.83;25.15;;;4.00;86.40;;;1.94;100.00;94769.28;4951987;28;20063;-66
2021/12/28 02:22:37;;;;;;;42.85;24.67;;;4.00;86.20;;;1.92;100.00;94753.88;4951262;28;20040;-66
2021/12/28 02:25:04;;;;;;;37.75;23.63;;;3.90;86.10;;;1.92;100.00;94768.63;4953522;28;20070;-66
2021/12/28 02:27:30;;;;;;;42.38;24.30;;;4.00;86.10;;;1.92;100.00;94771.22;4982752;28;20094;-66
2021/12/28 02:29:56;;;;;;;41.28;23.25;;;4.00;86.30;;;1.91;100.00;94767.03;4928792;28;20039;-66
2021/12/28 02:32:26;;;;;;;40.97;23.60;;;4.00;85.90;;;1.89;100.00;94761.19;4977863;28;20522;-66
2021/12/28 02:34:52;;;;;;;43.90;25.70;;;4.00;85.80;;;1.88;100.00;94777.72;4946615;28;20130;-66
2021/12/28 02:37:18;;;;;;;39.83;24.38;;;3.90;86.50;;;1.84;100.00;94772.09;4953843;28;20058;-65
2021/12/28 02:39:45;;;;;;;39.28;24.73;;;3.80;86.60;;;1.81;100.00;94762.88;4942434;28;20046;-66
2021/12/28 02:42:11;;;;;;;39.47;23.75;;;3.80;86.30;;;1.80;100.00;94750.03;4959025;28;20162;-66
2021/12/28 02:44:37;;;;;;;33.83;21.50;;;3.70;86.40;;;1.77;100.00;94751.19;4953343;28;20113;-67
2021/12/28 02:47:03;;;;;;;34.22;22.17;;;3.80;86.60;;;1.77;100.00;94735.63;4970123;28;20122;-66
2021/12/28 02:49:28;;;;;;;36.90;22.08;;;3.80;86.80;;;1.76;100.00;94734.03;5001395;28;20035;-67
2021/12/28 02:51:54;;;;;;;36.30;22.17;;;3.80;87.00;;;1.75;100.00;94737.59;4992837;28;20472;-67
2021/12/28 02:54:20;;;;;;;35.00;20.40;;;3.80;87.00;;;1.76;100.00;94738.41;4941189;28;20059;-67
2021/12/28 02:56:46;;;;;;;32.28;19.52;;;3.70;86.90;;;1.77;100.00;94746.00;4939262;28;20078;-66
2021/12/28 02:59:11;;;;;;;30.35;19.63;;;3.70;87.10;;;1.76;100.00;94741.78;4986005;28;20034;-66
2021/12/28 03:01:40;;;;;;;29.25;19.70;;;3.80;86.90;;;1.77;100.00;94740.81;4967110;28;20039;-67
2021/12/28 03:04:08;;;;;;;33.30;20.90;;;3.70;87.00;;;1.75;100.00;94737.59;4970183;28;20037;-67
2021/12/28 03:06:34;;;;;;;27.55;19.40;;;3.70;86.90;;;1.71;100.00;94720.75;4985928;28;20049;-67
2021/12/28 03:09:02;;;;;;;27.70;19.73;;;3.60;86.60;;;1.64;100.00;94719.81;4954315;28;20035;-67
2021/12/28 03:11:28;;;;;;;26.75;18.67;;;3.50;86.20;;;1.57;100.00;94718.84;4976739;28;20034;-66
2021/12/28 03:13:57;;;;;;;25.67;18.65;;;3.40;85.60;;;1.51;99.73;94702.22;4939180;28;20423;-67
2021/12/28 03:16:24;;;;;;;27.92;20.17;;;3.40;85.50;;;1.49;100.00;94705.94;4931005;28;20098;-66
2021/12/28 03:18:50;;;;;;;27.33;19.52;;;3.40;85.30;;;1.44;99.78;94703.06;4951182;28;20523;-68
2021/12/28 03:21:17;;;;;;;27.20;19.55;;;3.40;85.10;;;1.33;99.62;94695.63;4954149;28;20118;-67
2021/12/28 03:23:43;;;;;;;42.38;19.13;;;3.20;85.30;;;1.26;99.59;94694.69;4952660;28;20042;-67
2021/12/28 03:26:09;;;;;;;41.17;19.63;;;3.10;85.40;;;1.17;100.00;94692.13;4983388;28;20117;-67
2021/12/28 03:28:39;;;;;;;32.42;19.67;;;3.00;85.70;;;1.13;100.00;94696.03;4971565;28;20053;-67
2021/12/28 03:31:05;;;;;;;31.35;19.88;;;3.00;86.20;;;1.10;100.00;94696.34;4969446;28;20035;-65
2021/12/28 03:33:34;;;;;;;44.75;19.35;;;3.00;86.70;;;1.08;100.00;94695.69;4937471;28;20032;-65
2021/12/28 03:35:59;;;;;;;32.30;18.98;;;3.10;86.90;;;1.07;100.00;94691.50;4951071;28;20119;-66
2021/12/28 03:38:25;;;;;;;51.90;18.45;;;3.00;87.20;;;1.05;100.00;94687.44;4934574;29;20110;-66
2021/12/28 03:40:52;;;;;;;96.85;19.52;;;3.00;87.20;;;1.01;100.00;94686.97;4943982;28;20037;-67
2021/12/28 03:43:17;;;;;;;35.00;18.45;;;2.90;87.20;;;1.00;100.00;94690.53;4952660;28;20058;-65
2021/12/28 03:45:44;;;;;;;31.48;19.70;;;2.90;87.30;;;0.99;100.00;94688.94;4968754;28;20550;-67
2021/12/28 03:48:09;;;;;;;149.45;19.67;;;3.00;86.90;;;0.98;100.00;94692.50;4969063;28;20035;-66
2021/12/28 03:50:35;;;;;;;29.60;18.80;;;3.00;86.40;;;0.96;100.00;94689.25;4975990;28;20105;-66
2021/12/28 03:53:01;;;;;;;28.95;18.85;;;3.00;86.50;;;0.93;100.00;94686.19;4954751;28;20662;-67
2021/12/28 03:55:27;;;;;;;49.70;17.85;;;2.90;86.40;;;0.88;100.00;94684.06;4937546;28;20083;-67
2021/12/28 03:57:53;;;;;;;54.95;18.17;;;2.80;86.70;;;0.83;100.00;94688.94;4958081;28;20066;-67
2021/12/28 04:00:21;;;;;;;69.05;18.65;;;2.70;86.60;;;0.79;100.00;94691.06;4975781;28;20074;-67
2021/12/28 04:02:46;;;;;;;60.25;29.80;;;2.70;86.80;;;0.77;100.00;94687.03;4952535;28;20134;-67
2021/12/28 04:05:12;;;;;;;60.95;18.98;;;2.80;87.10;;;0.77;100.00;94681.84;4999975;28;20039;-67
2021/12/28 04:07:39;;;;;;;23.98;17.30;;;2.80;86.80;;;0.75;100.00;94679.41;4952903;28;20039;-70
2021/12/28 04:10:08;;;;;;;23.15;16.17;;;2.80;86.60;;;0.76;100.00;94682.81;4938558;28;20038;-67
2021/12/28 04:12:34;;;;;;;21.67;15.65;;;2.80;86.70;;;0.76;100.00;94673.28;4942504;28;20074;-67
2021/12/28 04:15:00;;;;;;;34.75;26.55;;;2.90;86.90;;;0.80;100.00;94665.97;4972510;28;20035;-66
2021/12/28 04:17:26;;;;;;;41.95;28.63;;;2.90;86.50;;;0.82;100.00;94661.44;4987762;28;20034;-65
2021/12/28 04:19:52;;;;;;;35.03;24.65;;;2.90;86.50;;;0.83;100.00;94652.72;4962480;28;20039;-67
2021/12/28 04:22:18;;;;;;;33.22;23.73;;;3.00;86.50;;;0.86;100.00;94665.31;4937288;29;20070;-66
2021/12/28 04:24:44;;;;;;;41.25;28.67;;;3.00;86.90;;;0.90;100.00;94661.41;4923975;29;20466;-66
2021/12/28 04:27:10;;;;;;;37.42;26.02;;;3.10;87.10;;;0.92;100.00;94656.91;4953630;29;20035;-66
2021/12/28 04:29:35;;;;;;;20.42;14.55;;;3.10;87.20;;;0.94;100.00;94665.31;4946866;28;20077;-67
2021/12/28 04:32:01;;;;;;;40.92;27.63;;;3.10;87.20;;;0.96;100.00;94653.03;4988172;28;20663;-66
2021/12/28 04:34:27;;;;;;;29.02;20.27;;;3.10;87.10;;;0.99;100.00;94655.28;4971001;28;20055;-66
2021/12/28 04:36:53;;;;;;;24.67;17.48;;;3.10;87.00;;;1.00;100.00;94646.53;4954749;28;20471;-66
2021/12/28 04:39:18;;;;;;;17.52;13.20;;;3.10;87.20;;;1.01;100.00;94630.03;4972225;28;20085;-66
2021/12/28 04:41:44;;;;;;;17.30;12.50;;;3.10;87.40;;;1.06;100.00;94634.69;4996962;28;20059;-66
2021/12/28 04:44:13;;;;;;;16.15;12.30;;;3.20;87.30;;;1.08;100.00;94628.38;4953854;28;20494;-67
2021/12/28 04:46:38;;;;;;;16.95;12.27;;;3.10;87.40;;;1.08;100.00;94623.19;4970501;28;20034;-66
2021/12/28 04:49:04;;;;;;;16.58;11.43;;;3.10;87.20;;;1.10;100.00;94623.84;4986189;28;20046;-66
2021/12/28 04:51:30;;;;;;;18.08;11.63;;;3.10;87.20;;;1.09;100.00;94622.22;4942209;28;20062;-66
2021/12/28 04:53:57;;;;;;;16.95;11.52;;;3.10;87.30;;;1.11;100.00;94628.03;4952087;28;20035;-66
2021/12/28 04:56:23;;;;;;;15.38;11.60;;;3.10;87.20;;;1.12;100.00;94634.81;4956180;28;20051;-66
2021/12/28 04:58:48;;;;;;;16.77;11.40;;;3.10;87.30;;;1.14;100.00;94630.31;4943768;29;20070;-68
2021/12/28 05:01:14;;;;;;;15.85;10.90;;;3.10;87.20;;;1.14;100.00;94616.56;4954341;28;20043;-67
2021/12/28 05:03:40;;;;;;;15.35;10.93;;;3.10;87.40;;;1.15;100.00;94626.75;4939926;28;20046;-67
2021/12/28 05:06:05;;;;;;;16.20;11.00;;;3.20;87.10;;;1.16;100.00;94623.19;4971145;28;20118;-66
2021/12/28 05:08:31;;;;;;;14.98;11.23;;;3.20;87.00;;;1.18;100.00;94616.06;4956037;28;20019;-66
2021/12/28 05:10:57;;;;;;;55.53;34.42;;;3.30;86.70;;;1.21;100.00;94617.50;4955378;28;20026;-67
2021/12/28 05:13:23;;;;;;;22.63;16.13;;;3.30;86.90;;;1.21;100.00;94620.91;4956291;28;20049;-67
2021/12/28 05:15:50;;;;;;;17.02;11.85;;;3.30;86.70;;;1.22;100.00;94617.34;4952130;29;20028;-67
2021/12/28 05:18:16;;;;;;;16.42;10.50;;;3.30;86.50;;;1.20;100.00;94614.09;4952529;28;20086;-67
2021/12/28 05:20:42;;;;;;;15.70;10.95;;;3.20;86.30;;;1.18;100.00;94599.72;4958209;28;20465;-67
2021/12/28 05:23:08;;;;;;;13.48;9.45;;;3.20;86.10;;;1.17;100.00;94593.72;4954472;28;20093;-67
2021/12/28 05:25:33;;;;;;;17.25;9.95;;;3.20;86.00;;;1.18;100.00;94594.53;4969664;28;20136;-67
2021/12/28 05:28:00;;;;;;;19.70;10.52;;;3.20;86.00;;;1.16;100.00;94594.69;4972699;28;20058;-66
2021/12/28 05:30:26;;;;;;;14.63;10.00;;;3.20;86.00;;;1.13;100.00;94597.63;4970171;28;20054;-67
2021/12/28 05:32:52;;;;;;;13.75;9.00;;;3.20;85.90;;;1.10;100.00;94597.94;4956071;28;20050;-67
2021/12/28 05:35:18;;;;;;;13.23;9.20;;;3.10;86.00;;;1.11;100.00;94586.59;4985569;28;20038;-66
2021/12/28 05:37:43;;;;;;;14.68;10.23;;;3.20;86.00;;;1.14;100.00;94588.09;4961266;28;20039;-67
2021/12/28 05:40:10;;;;;;;14.98;10.55;;;3.30;86.30;;;1.15;100.00;94587.91;4947678;28;20499;-66
2021/12/28 05:42:36;;;;;;;17.98;12.10;;;3.30;86.20;;;1.18;100.00;94587.56;4976945;28;20050;-67
2021/12/28 05:45:02;;;;;;;15.93;10.60;;;3.30;86.30;;;1.17;100.00;94588.53;4948885;28;20039;-66
2021/12/28 05:47:27;;;;;;;16.13;10.55;;;3.30;86.20;;;1.19;100.00;94586.59;4970074;28;20035;-66
2021/12/28 05:49:53;;;;;;;16.02;10.27;;;3.30;86.00;;;1.19;100.00;94589.19;4970730;28;20486;-67
2021/12/28 05:52:19;;;;;;;16.70;10.85;;;3.30;85.60;;;1.19;100.00;94584.00;4969327;28;20483;-67
2021/12/28 05:54:45;;;;;;;15.07;9.70;;;3.30;85.60;;;1.19;100.00;94586.59;4994433;28;20075;-67
2021/12/28 05:57:10;;;;;;;16.73;9.07;;;3.40;85.80;;;1.21;100.00;94583.84;4970542;28;20066;-67
2021/12/28 05:59:36;;;;;;;13.45;8.18;;;3.40;86.00;;;1.22;100.00;94578.47;4971261;28;20055;-66
2021/12/28 06:02:02;;;;;;;12.70;7.70;;;3.40;86.00;;;1.27;100.00;94587.53;4936393;28;20798;-66
2021/12/28 06:04:28;;;;;;;14.07;7.82;;;3.50;86.00;;;1.29;100.00;94585.56;4969748;28;20522;-66
2021/12/28 06:06:54;;;;;;;13.07;7.05;;;3.50;86.10;;;1.32;100.00;94590.41;5000169;28;20046;-65
2021/12/28 06:09:19;;;;;;;11.75;6.90;;;3.60;86.20;;;1.38;100.00;94590.56;4952014;28;20130;-66
2021/12/28 06:11:45;;;;;;;10.45;6.97;;;3.60;86.10;;;1.42;100.00;94596.19;4999084;28;20062;-66
2021/12/28 06:14:11;;;;;;;11.75;7.15;;;3.60;86.10;;;1.48;100.00;94592.94;4977680;28;20090;-67
2021/12/28 06:16:37;;;;;;;10.50;7.05;;;3.70;86.00;;;1.50;100.00;94594.38;4961868;28;20166;-66
2021/12/28 06:19:03;;;;;;;13.52;7.80;;;3.70;85.90;;;1.53;100.00;94598.41;4969515;28;20644;-66
2021/12/28 06:21:31;;;;;;;13.43;8.38;;;3.70;85.80;;;1.57;100.00;94610.03;4970640;28;20039;-67
2021/12/28 06:23:59;;;;;;;15.35;8.50;;;3.80;85.80;;;1.60;100.00;94608.91;4984421;28;20119;-66
2021/12/28 06:26:34;;;;;;;21.25;13.00;;;3.90;85.60;;;1.66;100.00;94613.41;4963179;28;20487;-66
2021/12/28 06:29:00;;;;;;;16.77;9.43;;;3.90;86.00;;;1.66;100.00;94624.56;4952609;28;20158;-65
2021/12/28 06:31:28;;;;;;;11.55;7.32;;;3.90;85.50;;;1.70;100.00;94623.25;4942539;29;20509;-66
2021/12/28 06:33:58;;;;;;;12.95;7.80;;;3.90;85.40;;;1.71;100.00;94614.50;4953764;28;20103;-66
2021/12/28 06:36:25;;;;;;;14.50;7.90;;;3.80;85.60;;;1.73;100.00;94614.31;4953788;28;20494;-66
2021/12/28 06:38:51;;;;;;;14.05;8.05;;;3.90;85.60;;;1.72;100.00;94613.50;4953273;28;20035;-66
2021/12/28 06:41:17;;;;;;;17.38;9.63;;;3.90;85.20;;;1.74;100.00;94613.34;4986445;28;20039;-67
2021/12/28 06:43:43;;;;;;;13.98;9.70;;;3.90;84.80;;;1.72;100.00;94605.75;4961325;28;20075;-68
2021/12/28 06:46:09;;;;;;;15.30;9.98;;;3.90;84.80;;;1.71;100.00;94606.72;4949320;28;20051;-72
2021/12/28 06:48:35;;;;;;;19.48;10.85;;;3.80;84.80;;;1.71;100.00;94606.72;4953876;28;20033;-67
2021/12/28 06:51:00;;;;;;;21.85;10.00;;;3.80;84.90;;;1.73;100.00;94617.72;4964394;28;20035;-69
2021/12/28 06:53:26;;;;;;;16.52;10.13;;;3.90;85.10;;;1.74;100.00;94621.94;4967722;28;20041;-70
2021/12/28 06:55:52;;;;;;;15.38;9.77;;;3.90;85.10;;;1.75;100.00;94618.34;4952046;28;20448;-70
2021/12/28 06:58:18;;;;;;;17.17;8.55;;;3.90;85.10;;;1.77;100.00;94618.19;4942626;28;20245;-69
2021/12/28 07:00:43;;;;;;;14.73;8.02;;;3.90;85.10;;;1.77;100.00;94615.59;4954905;28;20030;-66
2021/12/28 07:03:09;;;;;;;13.88;9.25;;;3.90;85.20;;;1.78;100.00;94610.22;4949682;28;20107;-67
2021/12/28 07:05:35;;;;;;;15.77;8.98;;;3.90;85.10;;;1.78;100.00;94597.28;4966110;28;20427;-67
2021/12/28 07:08:01;;;;;;;14.75;9.20;;;3.90;85.10;;;1.76;100.00;94594.03;4942621;28;20073;-66
2021/12/28 07:10:27;;;;;;;16.45;9.85;;;3.80;84.80;;;1.73;100.00;94594.41;4937796;28;20503;-66
2021/12/28 07:12:53;;;;;;;17.73;10.82;;;3.80;85.00;;;1.70;100.00;94578.38;4949918;28;20039;-67
2021/12/28 07:15:19;;;;;;;17.67;10.52;;;3.70;85.00;;;1.70;100.00;94578.38;4967532;28;20039;-67
2021/12/28 07:17:45;;;;;;;15.35;10.27;;;3.70;85.10;;;1.67;100.00;94563.19;4950246;28;20035;-66
2021/12/28 07:20:12;;;;;;;24.63;10.75;;;3.60;84.90;;;1.66;100.00;94556.38;4950120;28;20046;-66
2021/12/28 07:22:38;;;;;;;18.92;10.65;;;3.70;85.00;;;1.64;100.00;94563.53;4966552;28;20404;-66
2021/12/28 07:25:04;;;;;;;17.40;11.18;;;3.60;85.10;;;1.62;100.00;94560.31;4921239;28;20140;-66
2021/12/28 07:27:30;;;;;;;19.58;11.65;;;3.60;84.90;;;1.59;99.82;94568.44;4934607;29;20601;-66
2021/12/28 07:29:56;;;;;;;21.42;11.65;;;3.60;84.90;;;1.56;100.00;94576.53;4945351;28;20073;-67
2021/12/28 07:32:21;;;;;;;20.40;12.05;;;3.50;84.70;;;1.54;99.87;94584.47;4944823;28;20490;-66
2021/12/28 07:34:47;;;;;;;19.48;12.95;;;3.50;84.60;;;1.49;99.89;94591.94;4922889;28;20031;-66
2021/12/28 07:37:13;;;;;;;20.42;13.55;;;3.50;84.70;;;1.51;99.92;94605.53;4936261;29;20047;-67
2021/12/28 07:39:38;;;;;;;21.13;13.75;;;3.60;84.50;;;1.53;100.00;94626.91;4963799;28;20096;-67
2021/12/28 07:42:04;;;;;;;18.85;12.32;;;3.60;84.50;;;1.53;100.00;94635.47;4951768;28;20039;-66
2021/12/28 07:44:30;;;;;;;18.98;12.77;;;3.60;84.80;;;1.53;99.70;94629.50;4964594;28;20039;-67
2021/12/28 07:46:56;;;;;;;21.10;12.80;;;3.70;84.60;;;1.56;99.74;94633.53;4932056;28;20055;-67
2021/12/28 07:49:22;;;;;;;22.85;14.57;;;3.80;84.70;;;1.57;100.00;94635.94;4950033;28;20032;-66
2021/12/28 07:51:48;;;;;;;20.40;14.02;;;3.80;84.80;;;1.60;100.00;94630.44;4994797;28;20113;-66
2021/12/28 07:54:13;;;;;;;19.80;13.27;;;3.80;84.80;;;1.62;100.00;94622.50;4983250;28;20038;-67
2021/12/28 07:56:39;;;;;;;23.02;14.13;;;3.70;85.00;;;1.64;100.00;94631.72;4987976;28;20479;-67
2021/12/28 07:59:05;;;;;;;19.48;12.77;;;3.80;85.10;;;1.65;100.00;94619.56;4933649;28;20500;-68
2021/12/28 08:01:32;;;;;;;17.58;11.77;;;3.80;85.20;;;1.67;100.00;94626.19;4935832;28;20043;-69
2021/12/28 08:03:58;;;;;;;18.65;11.93;;;3.80;85.10;;;1.68;100.00;94653.72;4950312;28;20139;-68
2021/12/28 08:06:24;;;;;;;20.13;11.52;;;3.70;85.00;;;1.69;100.00;94644.97;4951922;28;20031;-70
2021/12/28 08:08:49;;;;;;;18.45;12.00;;;3.80;85.20;;;1.72;100.00;94657.56;4934818;28;20199;-70
2021/12/28 08:11:15;;;;;;;21.58;12.50;;;3.90;85.40;;;1.75;100.00;94661.63;4957311;28;20071;-69
2021/12/28 08:13:41;;;;;;;21.80;14.73;;;4.00;85.50;;;1.77;100.00;94644.91;4959741;28;20062;-69
2021/12/28 08:16:07;;;;;;;25.15;14.32;;;4.00;85.30;;;1.78;100.00;94643.94;4960352;28;20039;-70
2021/12/28 08:18:32;;;;;;;19.92;13.50;;;4.00;85.60;;;1.81;100.00;94645.38;4953535;28;20034;-68
2021/12/28 08:20:58;;;;;;;21.05;14.23;;;4.00;85.40;;;1.82;100.00;94645.22;4999150;28;20502;-68
2021/12/28 08:23:24;;;;;;;21.15;13.93;;;4.00;85.40;;;1.86;100.00;94644.88;4949942;28;20119;-66
2021/12/28 08:25:50;;;;;;;20.48;13.30;;;4.10;85.20;;;1.88;100.00;94645.50;4969819;28;20065;-65
2021/12/28 08:28:16;;;;;;;18.67;12.73;;;4.10;85.20;;;1.90;100.00;94659.13;4932263;28;20067;-66
2021/12/28 08:30:42;;;;;;;19.15;12.63;;;4.10;85.30;;;1.92;100.00;94659.75;4953714;28;20091;-73
2021/12/28 08:33:08;;;;;;;17.80;12.30;;;4.10;85.20;;;1.94;100.00;94674.16;4953439;28;20077;-69
2021/12/28 08:35:34;;;;;;;21.30;13.90;;;4.20;85.10;;;1.98;100.00;94674.63;4973537;28;20113;-70
2021/12/28 08:38:00;;;;;;;19.88;12.85;;;4.10;85.30;;;2.02;100.00;94674.09;4949050;28;20114;-69
2021/12/28 08:40:26;;;;;;;20.00;13.13;;;4.20;85.20;;;2.05;100.00;94680.75;4951329;28;20035;-70
2021/12/28 08:42:52;;;;;;;18.70;12.77;;;4.20;85.20;;;2.08;100.00;94714.13;4951953;28;20035;-69
2021/12/28 08:45:18;;;;;;;23.05;14.68;;;4.20;85.20;;;2.10;100.00;94699.19;4953183;28;20367;-69
2021/12/28 08:47:46;;;;;;;21.73;16.30;;;4.30;85.10;;;2.13;100.00;94704.03;4937261;28;20047;-69
2021/12/28 08:50:12;;;;;;;24.23;15.18;;;4.40;84.90;;;2.14;100.00;94721.22;4952615;28;20089;-69
2021/12/28 08:52:37;;;;;;;21.60;14.63;;;4.30;84.80;;;2.13;100.00;94710.03;4937039;28;20047;-70
2021/12/28 08:55:04;;;;;;;23.52;14.80;;;4.40;85.00;;;2.17;100.00;94717.47;4968390;28;20248;-69
2021/12/28 08:57:30;;;;;;;25.67;15.55;;;4.40;84.90;;;2.20;100.00;94715.31;4969270;28;20035;-69
2021/12/28 08:59:56;;;;;;;25.77;17.63;;;4.50;85.00;;;2.20;100.00;94694.56;4954874;28;20418;-69
2021/12/28 09:02:21;;;;;;;24.10;15.93;;;4.40;84.70;;;2.24;100.00;94698.44;4956462;28;20680;-69
2021/12/28 09:04:48;;;;;;;20.98;14.63;;;4.50;84.80;;;2.24;100.00;94701.03;4971919;28;20050;-70
2021/12/28 09:07:15;;;;;;;22.27;15.05;;;4.50;84.70;;;2.25;100.00;94697.44;4952849;29;20039;-70
2021/12/28 09:09:40;;;;;;;19.25;13.75;;;4.50;84.80;;;2.27;100.00;94690.34;4937433;29;20495;-70
2021/12/28 09:12:07;;;;;;;19.90;14.02;;;4.60;84.80;;;2.32;100.00;94688.03;4920563;28;20115;-70
2021/12/28 09:14:33;;;;;;;20.95;13.10;;;4.60;84.90;;;2.35;100.00;94692.88;4921406;28;20110;-69
2021/12/28 09:16:59;;;;;;;19.85;13.10;;;4.70;84.70;;;2.39;100.00;94695.91;4952748;29;20054;-69
2021/12/28 09:19:25;;;;;;;18.58;12.63;;;4.70;84.40;;;2.41;100.00;94707.72;4960528;28;20551;-70
2021/12/28 09:21:51;;;;;;;18.42;12.93;;;4.80;84.40;;;2.46;100.00;94715.81;4955750;28;20531;-71
2021/12/28 09:24:16;;;;;;;17.77;12.88;;;4.80;84.50;;;2.50;100.00;94710.28;4955547;28;20030;-71
2021/12/28 09:26:42;;;;;;;20.52;12.27;;;4.90;84.40;;;2.55;100.00;94702.78;4971344;28;20474;-70
2021/12/28 09:29:08;;;;;;;18.67;12.45;;;4.90;84.40;;;2.57;100.00;94711.19;4974408;28;20130;-69
2021/12/28 09:31:34;;;;;;;17.25;12.88;;;5.00;84.40;;;2.62;100.00;94698.50;4971626;28;20058;-71
2021/12/28 09:33:59;;;;;;;23.67;15.48;;;5.00;84.40;;;2.67;100.00;94701.38;4965329;28;20054;-70
2021/12/28 09:36:26;;;;;;;19.35;13.90;;;5.10;84.50;;;2.71;100.00;94693.06;4936423;28;20035;-69
2021/12/28 09:38:52;;;;;;;20.77;14.38;;;5.10;84.50;;;2.76;100.00;94689.97;4961392;28;20031;-71
2021/12/28 09:41:17;;;;;;;21.80;14.57;;;5.10;84.50;;;2.83;100.00;94697.84;4967396;28;20257;-71
2021/12/28 09:43:44;;;;;;;22.65;14.63;;;5.30;84.60;;;2.86;100.00;94685.31;4955898;28;20106;-69
2021/12/28 09:46:10;;;;;;;17.33;11.45;;;5.20;84.30;;;2.90;100.00;94676.19;4949257;28;20054;-69
2021/12/28 09:48:36;;;;;;;17.17;11.02;;;5.20;84.10;;;2.94;100.00;94676.63;4963125;28;20038;-70
2021/12/28 09:51:05;;;;;;;15.63;10.65;;;5.20;84.00;;;2.95;100.00;94686.06;4985565;28;20043;-70
2021/12/28 09:53:31;;;;;;;17.77;10.88;;;5.10;84.00;;;2.96;100.00;94677.28;4968881;28;20038;-70
2021/12/28 09:55:57;;;;;;;17.05;10.82;;;5.10;84.00;;;2.97;100.00;94687.50;4923503;28;20047;-68
2021/12/28 09:58:23;;;;;;;15.13;10.65;;;5.20;83.80;;;3.01;100.00;94691.34;4965606;28;20062;-68
2021/12/28 10:00:49;;;;;;;17.17;12.27;;;5.20;84.10;;;3.01;100.00;94687.94;4966725;28;20034;-70
2021/12/28 10:03:15;;;;;;;18.88;12.50;;;5.00;83.90;;;2.95;100.00;94679.06;4951105;29;20050;-70
2021/12/28 10:05:41;;;;;;;18.30;12.88;;;5.00;83.70;;;2.95;100.00;94679.06;4945498;29;20059;-70
2021/12/28 10:08:07;;;;;;;18.27;12.32;;;5.10;83.80;;;2.94;100.00;94677.47;4947283;28;20040;-69
2021/12/28 10:10:39;;;;;;;17.90;13.02;;;5.10;83.70;;;2.94;100.00;94667.09;4962917;28;20038;-69